sensor_id;sensor_type;location;lat;lon;timestamp;temperature;humidity
8662;DHT22;29684;47.722;9.388;2023-04-01T00:01:34;8.00;99.90
8662;DHT22;29684;47.722;9.388;2023-04-01T00:04:18;7.90;99.90
8662;DHT22;29684;47.722;9.388;2023-04-01T00:07:04;7.80;99.90
8662;DHT22;29684;47.722;9.388;2023-04-01T00:09:48;7.70;99.90
8662;DHT22;29684;47.722;9.388;2023-04-01T00:12:32;7.70;99.90
8662;DHT22;29684;47.722;9.388;2023-04-01T00:15:16;7.60;99.90
8662;DHT22;29684;47.722;9.388;2023-04-01T00:18:00;7.50;99.90
8662;DHT22;29684;47.722;9.388;2023-04-01T00:20:46;7.50;99.90
8662;DHT22;29684;47.722;9.388;2023-04-01T00:23:31;7.40;99.90
8662;DHT22;29684;47.722;9.388;2023-04-01T00:26:16;7.40;99.90
8662;DHT22;29684;47.722;9.388;2023-04-01T00:29:03;7.30;99.90
8662;DHT22;29684;47.722;9.388;2023-04-01T00:31:47;7.30;99.90
8662;DHT22;29684;47.722;9.388;2023-04-01T00:34:33;7.40;99.90
8662;DHT22;29684;47.722;9.388;2023-04-01T00:37:17;7.30;99.90
8662;DHT22;29684;47.722;9.388;2023-04-01T00:40:02;7.20;99.90
8662;DHT22;29684;47.722;9.388;2023-04-01T00:42:46;7.10;99.90
8662;DHT22;29684;47.722;9.388;2023-04-01T00:45:36;7.10;99.90
8662;DHT22;29684;47.722;9.388;2023-04-01T00:48:33;7.00;99.90
8662;DHT22;29684;47.722;9.388;2023-04-01T00:51:22;6.90;99.90
8662;DHT22;29684;47.722;9.388;2023-04-01T00:54:09;6.80;99.90
8662;DHT22;29684;47.722;9.388;2023-04-01T00:56:55;6.80;99.90
8662;DHT22;29684;47.722;9.388;2023-04-01T00:59:50;6.80;99.90
8662;DHT22;29684;47.722;9.388;2023-04-01T01:02:37;6.70;99.90
8662;DHT22;29684;47.722;9.388;2023-04-01T01:05:30;6.60;99.90
8662;DHT22;29684;47.722;9.388;2023-04-01T01:11:45;6.50;99.90
8662;DHT22;29684;47.722;9.388;2023-04-01T01:26:53;6.20;99.90
8662;DHT22;29684;47.722;9.388;2023-04-01T01:33:13;6.20;99.90
8662;DHT22;29684;47.722;9.388;2023-04-01T01:36:03;6.20;99.90
8662;DHT22;29684;47.722;9.388;2023-04-01T01:38:48;6.20;99.90
8662;DHT22;29684;47.722;9.388;2023-04-01T01:41:35;6.10;99.90
8662;DHT22;29684;47.722;9.388;2023-04-01T01:44:21;6.10;99.90
8662;DHT22;29684;47.722;9.388;2023-04-01T01:47:06;6.10;99.90
8662;DHT22;29684;47.722;9.388;2023-04-01T01:49:51;6.00;99.90
8662;DHT22;29684;47.722;9.388;2023-04-01T01:52:36;6.00;99.90
8662;DHT22;29684;47.722;9.388;2023-04-01T01:55:32;6.00;99.90
8662;DHT22;29684;47.722;9.388;2023-04-01T02:01:07;6.10;99.90
8662;DHT22;29684;47.722;9.388;2023-04-01T02:03:52;6.00;99.90
8662;DHT22;29684;47.722;9.388;2023-04-01T02:06:40;6.00;99.90
8662;DHT22;29684;47.722;9.388;2023-04-01T02:09:26;6.10;99.90
8662;DHT22;29684;47.722;9.388;2023-04-01T02:12:13;6.10;99.90
8662;DHT22;29684;47.722;9.388;2023-04-01T02:15:11;6.00;99.90
8662;DHT22;29684;47.722;9.388;2023-04-01T02:17:57;6.10;99.90
8662;DHT22;29684;47.722;9.388;2023-04-01T02:20:43;6.10;99.90
8662;DHT22;29684;47.722;9.388;2023-04-01T02:23:28;6.70;99.90
8662;DHT22;29684;47.722;9.388;2023-04-01T02:26:14;6.20;99.90
8662;DHT22;29684;47.722;9.388;2023-04-01T02:29:00;6.20;99.90
8662;DHT22;29684;47.722;9.388;2023-04-01T02:31:46;6.20;99.90
8662;DHT22;29684;47.722;9.388;2023-04-01T02:34:30;6.30;99.90
8662;DHT22;29684;47.722;9.388;2023-04-01T02:37:15;6.40;99.90
8662;DHT22;29684;47.722;9.388;2023-04-01T02:40:04;6.40;99.90
8662;DHT22;29684;47.722;9.388;2023-04-01T02:42:50;6.50;99.90
8662;DHT22;29684;47.722;9.388;2023-04-01T02:45:35;6.60;99.90
8662;DHT22;29684;47.722;9.388;2023-04-01T02:48:19;6.70;99.90
8662;DHT22;29684;47.722;9.388;2023-04-01T02:51:04;6.70;99.90
8662;DHT22;29684;47.722;9.388;2023-04-01T02:53:48;6.70;99.90
8662;DHT22;29684;47.722;9.388;2023-04-01T02:56:32;6.80;99.90
8662;DHT22;29684;47.722;9.388;2023-04-01T02:59:16;6.80;99.90
8662;DHT22;29684;47.722;9.388;2023-04-01T03:02:01;6.80;99.90
8662;DHT22;29684;47.722;9.388;2023-04-01T03:04:45;6.90;99.90
8662;DHT22;29684;47.722;9.388;2023-04-01T03:07:29;6.90;99.90
8662;DHT22;29684;47.722;9.388;2023-04-01T03:10:14;6.90;99.90
8662;DHT22;29684;47.722;9.388;2023-04-01T03:12:58;6.90;99.90
8662;DHT22;29684;47.722;9.388;2023-04-01T03:15:42;6.90;99.90
8662;DHT22;29684;47.722;9.388;2023-04-01T03:18:26;6.90;99.90
8662;DHT22;29684;47.722;9.388;2023-04-01T03:21:19;6.90;99.90
8662;DHT22;29684;47.722;9.388;2023-04-01T03:24:04;6.90;99.90
8662;DHT22;29684;47.722;9.388;2023-04-01T03:26:49;7.00;99.90
8662;DHT22;29684;47.722;9.388;2023-04-01T03:29:33;7.00;99.90
8662;DHT22;29684;47.722;9.388;2023-04-01T03:32:17;7.00;99.90
8662;DHT22;29684;47.722;9.388;2023-04-01T03:35:02;7.20;99.90
8662;DHT22;29684;47.722;9.388;2023-04-01T03:37:46;7.20;99.90
8662;DHT22;29684;47.722;9.388;2023-04-01T03:40:31;7.20;99.90
8662;DHT22;29684;47.722;9.388;2023-04-01T03:43:17;7.20;99.90
8662;DHT22;29684;47.722;9.388;2023-04-01T03:46:01;7.20;99.90
8662;DHT22;29684;47.722;9.388;2023-04-01T03:48:46;7.20;99.90
8662;DHT22;29684;47.722;9.388;2023-04-01T03:51:30;7.10;99.90
8662;DHT22;29684;47.722;9.388;2023-04-01T03:54:14;7.20;99.90
8662;DHT22;29684;47.722;9.388;2023-04-01T03:56:58;7.20;99.90
8662;DHT22;29684;47.722;9.388;2023-04-01T03:59:42;7.20;99.90
8662;DHT22;29684;47.722;9.388;2023-04-01T04:02:26;7.30;99.90
8662;DHT22;29684;47.722;9.388;2023-04-01T04:05:10;7.30;99.90
8662;DHT22;29684;47.722;9.388;2023-04-01T04:07:55;7.30;99.90
8662;DHT22;29684;47.722;9.388;2023-04-01T04:10:40;7.10;99.90
8662;DHT22;29684;47.722;9.388;2023-04-01T04:13:25;7.30;99.90
8662;DHT22;29684;47.722;9.388;2023-04-01T04:16:10;7.30;99.90
8662;DHT22;29684;47.722;9.388;2023-04-01T04:18:54;7.30;99.90
8662;DHT22;29684;47.722;9.388;2023-04-01T04:21:39;7.40;99.90
8662;DHT22;29684;47.722;9.388;2023-04-01T04:24:24;7.40;99.90
8662;DHT22;29684;47.722;9.388;2023-04-01T04:27:08;7.40;99.90
8662;DHT22;29684;47.722;9.388;2023-04-01T04:29:52;7.40;99.90
8662;DHT22;29684;47.722;9.388;2023-04-01T04:32:36;7.40;99.90
8662;DHT22;29684;47.722;9.388;2023-04-01T04:35:21;7.30;99.90
8662;DHT22;29684;47.722;9.388;2023-04-01T04:38:05;7.40;99.90
8662;DHT22;29684;47.722;9.388;2023-04-01T04:40:49;7.40;99.90
8662;DHT22;29684;47.722;9.388;2023-04-01T04:43:33;7.40;99.90
8662;DHT22;29684;47.722;9.388;2023-04-01T04:46:18;7.40;99.90
8662;DHT22;29684;47.722;9.388;2023-04-01T04:49:03;7.40;99.90
8662;DHT22;29684;47.722;9.388;2023-04-01T04:51:47;7.40;99.90
8662;DHT22;29684;47.722;9.388;2023-04-01T04:54:32;7.40;99.90
8662;DHT22;29684;47.722;9.388;2023-04-01T04:57:16;7.40;99.90
8662;DHT22;29684;47.722;9.388;2023-04-01T05:00:00;7.60;99.90
8662;DHT22;29684;47.722;9.388;2023-04-01T05:02:44;7.40;99.90
8662;DHT22;29684;47.722;9.388;2023-04-01T05:05:29;7.40;99.90
8662;DHT22;29684;47.722;9.388;2023-04-01T05:08:13;7.40;99.90
8662;DHT22;29684;47.722;9.388;2023-04-01T05:10:57;7.30;99.90
8662;DHT22;29684;47.722;9.388;2023-04-01T05:13:42;7.20;99.90
8662;DHT22;29684;47.722;9.388;2023-04-01T05:16:27;7.20;99.90
8662;DHT22;29684;47.722;9.388;2023-04-01T05:19:11;7.10;99.90
8662;DHT22;29684;47.722;9.388;2023-04-01T05:21:55;7.10;99.90
8662;DHT22;29684;47.722;9.388;2023-04-01T05:24:39;7.10;99.90
8662;DHT22;29684;47.722;9.388;2023-04-01T05:27:23;7.00;99.90
8662;DHT22;29684;47.722;9.388;2023-04-01T05:30:08;7.00;99.90
8662;DHT22;29684;47.722;9.388;2023-04-01T05:32:52;7.00;99.90
8662;DHT22;29684;47.722;9.388;2023-04-01T05:35:36;7.00;99.90
8662;DHT22;29684;47.722;9.388;2023-04-01T05:38:20;7.00;99.90
8662;DHT22;29684;47.722;9.388;2023-04-01T05:41:04;7.00;99.90
8662;DHT22;29684;47.722;9.388;2023-04-01T05:43:48;7.10;99.90
8662;DHT22;29684;47.722;9.388;2023-04-01T05:46:33;7.10;99.90
8662;DHT22;29684;47.722;9.388;2023-04-01T05:49:18;7.10;99.90
8662;DHT22;29684;47.722;9.388;2023-04-01T05:52:02;7.20;99.90
8662;DHT22;29684;47.722;9.388;2023-04-01T05:54:47;7.10;99.90
8662;DHT22;29684;47.722;9.388;2023-04-01T05:57:31;7.20;99.90
8662;DHT22;29684;47.722;9.388;2023-04-01T06:00:16;7.20;99.90
8662;DHT22;29684;47.722;9.388;2023-04-01T06:03:02;7.30;99.90
8662;DHT22;29684;47.722;9.388;2023-04-01T06:05:46;7.20;99.90
8662;DHT22;29684;47.722;9.388;2023-04-01T06:08:31;7.30;99.90
8662;DHT22;29684;47.722;9.388;2023-04-01T06:38:46;7.70;99.90
8662;DHT22;29684;47.722;9.388;2023-04-01T06:50:38;7.90;99.90
8662;DHT22;29684;47.722;9.388;2023-04-01T06:53:54;7.90;99.90
8662;DHT22;29684;47.722;9.388;2023-04-01T06:56:42;8.00;99.90
8662;DHT22;29684;47.722;9.388;2023-04-01T06:59:29;8.10;99.90
8662;DHT22;29684;47.722;9.388;2023-04-01T07:02:25;8.20;99.90
8662;DHT22;29684;47.722;9.388;2023-04-01T07:05:13;8.20;99.90
8662;DHT22;29684;47.722;9.388;2023-04-01T07:08:02;8.30;99.90
8662;DHT22;29684;47.722;9.388;2023-04-01T07:10:58;8.40;99.90
8662;DHT22;29684;47.722;9.388;2023-04-01T07:13:58;8.40;99.90
8662;DHT22;29684;47.722;9.388;2023-04-01T07:16:58;8.40;99.90
8662;DHT22;29684;47.722;9.388;2023-04-01T07:20:13;8.40;99.90
8662;DHT22;29684;47.722;9.388;2023-04-01T07:23:03;8.50;99.90
8662;DHT22;29684;47.722;9.388;2023-04-01T07:25:55;8.50;99.90
8662;DHT22;29684;47.722;9.388;2023-04-01T07:28:40;8.50;99.90
8662;DHT22;29684;47.722;9.388;2023-04-01T07:35:08;8.70;99.90
8662;DHT22;29684;47.722;9.388;2023-04-01T07:49:59;8.90;99.90
8662;DHT22;29684;47.722;9.388;2023-04-01T07:59:10;9.00;99.90
8662;DHT22;29684;47.722;9.388;2023-04-01T08:21:10;9.20;99.90
8662;DHT22;29684;47.722;9.388;2023-04-01T08:24:04;9.30;99.90
8662;DHT22;29684;47.722;9.388;2023-04-01T08:26:56;9.30;99.90
8662;DHT22;29684;47.722;9.388;2023-04-01T08:29:48;9.10;99.90
8662;DHT22;29684;47.722;9.388;2023-04-01T08:32:39;9.10;99.90
8662;DHT22;29684;47.722;9.388;2023-04-01T08:38:44;9.00;99.90
8662;DHT22;29684;47.722;9.388;2023-04-01T08:54:54;9.00;99.90
8662;DHT22;29684;47.722;9.388;2023-04-01T09:00:27;9.00;99.90
8662;DHT22;29684;47.722;9.388;2023-04-01T09:12:55;8.80;99.90
8662;DHT22;29684;47.722;9.388;2023-04-01T09:22:22;8.70;99.90
8662;DHT22;29684;47.722;9.388;2023-04-01T09:34:53;8.50;99.90
8662;DHT22;29684;47.722;9.388;2023-04-01T09:41:06;8.50;99.90
8662;DHT22;29684;47.722;9.388;2023-04-01T09:47:40;8.50;99.90
8662;DHT22;29684;47.722;9.388;2023-04-01T09:54:31;8.60;99.90
8662;DHT22;29684;47.722;9.388;2023-04-01T10:04:23;8.60;99.90
8662;DHT22;29684;47.722;9.388;2023-04-01T10:16:49;8.80;99.90
8662;DHT22;29684;47.722;9.388;2023-04-01T10:20:05;8.80;99.90
8662;DHT22;29684;47.722;9.388;2023-04-01T10:26:29;8.90;99.90
8662;DHT22;29684;47.722;9.388;2023-04-01T10:33:04;9.10;99.90
8662;DHT22;29684;47.722;9.388;2023-04-01T10:48:33;9.20;99.90
8662;DHT22;29684;47.722;9.388;2023-04-01T10:51:52;9.20;99.90
8662;DHT22;29684;47.722;9.388;2023-04-01T11:11:33;9.30;99.90
8662;DHT22;29684;47.722;9.388;2023-04-01T11:33:52;9.40;99.90
8662;DHT22;29684;47.722;9.388;2023-04-01T11:37:14;9.50;99.90
8662;DHT22;29684;47.722;9.388;2023-04-01T11:40:30;9.50;99.90
8662;DHT22;29684;47.722;9.388;2023-04-01T11:43:39;9.60;99.90
8662;DHT22;29684;47.722;9.388;2023-04-01T11:46:31;9.80;99.90
8662;DHT22;29684;47.722;9.388;2023-04-01T11:49:25;10.00;99.90
8662;DHT22;29684;47.722;9.388;2023-04-01T12:04:34;10.20;99.90
8662;DHT22;29684;47.722;9.388;2023-04-01T12:07:52;10.10;99.90
8662;DHT22;29684;47.722;9.388;2023-04-01T12:26:55;10.50;99.90
8662;DHT22;29684;47.722;9.388;2023-04-01T12:36:26;10.60;99.90
8662;DHT22;29684;47.722;9.388;2023-04-01T12:57:32;9.40;99.90
8662;DHT22;29684;47.722;9.388;2023-04-01T13:13:28;9.80;99.90
8662;DHT22;29684;47.722;9.388;2023-04-01T13:16:24;9.90;99.90
8662;DHT22;29684;47.722;9.388;2023-04-01T13:19:18;9.80;99.90
8662;DHT22;29684;47.722;9.388;2023-04-01T13:22:10;10.10;99.90
8662;DHT22;29684;47.722;9.388;2023-04-01T13:25:00;9.80;99.90
8662;DHT22;29684;47.722;9.388;2023-04-01T13:27:56;9.80;99.90
8662;DHT22;29684;47.722;9.388;2023-04-01T13:31:02;9.90;99.90
8662;DHT22;29684;47.722;9.388;2023-04-01T13:43:37;9.80;99.90
8662;DHT22;29684;47.722;9.388;2023-04-01T13:53:02;9.80;99.90
8662;DHT22;29684;47.722;9.388;2023-04-01T14:11:50;9.80;99.90
8662;DHT22;29684;47.722;9.388;2023-04-01T14:57:16;9.90;99.90
8662;DHT22;29684;47.722;9.388;2023-04-01T15:00:13;9.90;99.90
8662;DHT22;29684;47.722;9.388;2023-04-01T15:03:03;9.90;99.90
8662;DHT22;29684;47.722;9.388;2023-04-01T15:09:12;9.80;99.90
8662;DHT22;29684;47.722;9.388;2023-04-01T15:18:12;8.60;99.90
8662;DHT22;29684;47.722;9.388;2023-04-01T15:27:34;8.60;99.90
8662;DHT22;29684;47.722;9.388;2023-04-01T15:33:53;8.80;99.90
8662;DHT22;29684;47.722;9.388;2023-04-01T15:46:19;9.10;99.90
8662;DHT22;29684;47.722;9.388;2023-04-01T15:52:35;9.10;99.90
8662;DHT22;29684;47.722;9.388;2023-04-01T16:01:51;8.90;99.90
8662;DHT22;29684;47.722;9.388;2023-04-01T16:05:00;8.90;99.90
8662;DHT22;29684;47.722;9.388;2023-04-01T16:08:09;9.00;99.90
8662;DHT22;29684;47.722;9.388;2023-04-01T16:17:50;9.20;99.90
8662;DHT22;29684;47.722;9.388;2023-04-01T16:20:46;9.20;99.90
8662;DHT22;29684;47.722;9.388;2023-04-01T16:23:53;9.20;99.90
8662;DHT22;29684;47.722;9.388;2023-04-01T16:29:48;9.20;99.90
8662;DHT22;29684;47.722;9.388;2023-04-01T16:32:38;9.20;99.90
8662;DHT22;29684;47.722;9.388;2023-04-01T16:35:47;9.30;99.90
8662;DHT22;29684;47.722;9.388;2023-04-01T16:38:40;9.20;99.90
8662;DHT22;29684;47.722;9.388;2023-04-01T16:41:32;9.20;99.90
8662;DHT22;29684;47.722;9.388;2023-04-01T16:44:20;9.20;99.90
8662;DHT22;29684;47.722;9.388;2023-04-01T16:47:19;9.20;99.90
8662;DHT22;29684;47.722;9.388;2023-04-01T16:56:04;9.20;99.90
8662;DHT22;29684;47.722;9.388;2023-04-01T17:02:02;9.30;99.90
8662;DHT22;29684;47.722;9.388;2023-04-01T17:05:03;9.30;99.90
8662;DHT22;29684;47.722;9.388;2023-04-01T17:08:50;9.40;99.90
8662;DHT22;29684;47.722;9.388;2023-04-01T17:11:54;9.40;99.90
8662;DHT22;29684;47.722;9.388;2023-04-01T17:26:40;9.20;99.90
8662;DHT22;29684;47.722;9.388;2023-04-01T17:36:38;9.00;99.90
8662;DHT22;29684;47.722;9.388;2023-04-01T17:39:40;9.00;99.90
8662;DHT22;29684;47.722;9.388;2023-04-01T17:42:46;9.00;99.90
8662;DHT22;29684;47.722;9.388;2023-04-01T17:45:42;8.90;99.90
8662;DHT22;29684;47.722;9.388;2023-04-01T17:51:40;8.70;99.90
8662;DHT22;29684;47.722;9.388;2023-04-01T17:57:52;8.70;99.90
8662;DHT22;29684;47.722;9.388;2023-04-01T18:00:56;8.60;99.90
8662;DHT22;29684;47.722;9.388;2023-04-01T18:07:01;8.60;99.90
8662;DHT22;29684;47.722;9.388;2023-04-01T18:13:29;8.50;99.90
8662;DHT22;29684;47.722;9.388;2023-04-01T18:16:41;8.40;99.90
8662;DHT22;29684;47.722;9.388;2023-04-01T18:22:21;8.30;99.90
8662;DHT22;29684;47.722;9.388;2023-04-01T18:45:59;8.30;99.90
8662;DHT22;29684;47.722;9.388;2023-04-01T18:49:07;8.20;99.90
8662;DHT22;29684;47.722;9.388;2023-04-01T18:52:07;8.20;99.90
8662;DHT22;29684;47.722;9.388;2023-04-01T18:57:58;8.10;99.90
8662;DHT22;29684;47.722;9.388;2023-04-01T19:04:21;8.00;99.90
8662;DHT22;29684;47.722;9.388;2023-04-01T19:10:16;7.90;99.90
8662;DHT22;29684;47.722;9.388;2023-04-01T19:13:27;7.90;99.90
8662;DHT22;29684;47.722;9.388;2023-04-01T19:25:35;7.70;99.90
8662;DHT22;29684;47.722;9.388;2023-04-01T19:31:55;7.80;99.90
8662;DHT22;29684;47.722;9.388;2023-04-01T19:37:45;7.70;99.90
8662;DHT22;29684;47.722;9.388;2023-04-01T19:40:54;7.70;99.90
8662;DHT22;29684;47.722;9.388;2023-04-01T19:46:51;7.70;99.90
8662;DHT22;29684;47.722;9.388;2023-04-01T19:52:39;7.70;99.90
8662;DHT22;29684;47.722;9.388;2023-04-01T19:55:36;7.70;99.90
8662;DHT22;29684;47.722;9.388;2023-04-01T20:04:54;7.60;99.90
8662;DHT22;29684;47.722;9.388;2023-04-01T20:07:44;7.50;99.90
8662;DHT22;29684;47.722;9.388;2023-04-01T20:13:40;7.40;99.90
8662;DHT22;29684;47.722;9.388;2023-04-01T20:28:30;7.60;99.90
8662;DHT22;29684;47.722;9.388;2023-04-01T20:40:40;7.70;99.90
8662;DHT22;29684;47.722;9.388;2023-04-01T20:43:42;7.70;99.90
8662;DHT22;29684;47.722;9.388;2023-04-01T20:49:41;7.60;99.90
8662;DHT22;29684;47.722;9.388;2023-04-01T20:52:55;7.60;99.90
8662;DHT22;29684;47.722;9.388;2023-04-01T21:02:11;7.40;99.90
8662;DHT22;29684;47.722;9.388;2023-04-01T21:08:30;7.40;99.90
8662;DHT22;29684;47.722;9.388;2023-04-01T21:20:54;7.70;99.90
8662;DHT22;29684;47.722;9.388;2023-04-01T21:33:04;7.60;99.90
8662;DHT22;29684;47.722;9.388;2023-04-01T21:42:07;7.40;99.90
8662;DHT22;29684;47.722;9.388;2023-04-01T21:52:07;7.10;99.90
8662;DHT22;29684;47.722;9.388;2023-04-01T22:00:51;6.80;99.90
8662;DHT22;29684;47.722;9.388;2023-04-01T22:06:47;6.60;99.90
8662;DHT22;29684;47.722;9.388;2023-04-01T22:12:49;6.90;99.90
8662;DHT22;29684;47.722;9.388;2023-04-01T22:33:51;7.10;99.90
8662;DHT22;29684;47.722;9.388;2023-04-01T22:43:13;7.20;99.90
8662;DHT22;29684;47.722;9.388;2023-04-01T22:49:26;6.70;99.90
8662;DHT22;29684;47.722;9.388;2023-04-01T22:52:26;6.60;99.90
8662;DHT22;29684;47.722;9.388;2023-04-01T22:58:06;6.50;99.90
8662;DHT22;29684;47.722;9.388;2023-04-01T23:00:55;6.60;99.90
8662;DHT22;29684;47.722;9.388;2023-04-01T23:03:46;6.70;99.90
8662;DHT22;29684;47.722;9.388;2023-04-01T23:06:35;6.80;99.90
8662;DHT22;29684;47.722;9.388;2023-04-01T23:09:34;6.70;99.90
8662;DHT22;29684;47.722;9.388;2023-04-01T23:12:21;6.60;99.90
8662;DHT22;29684;47.722;9.388;2023-04-01T23:15:12;6.50;99.90
8662;DHT22;29684;47.722;9.388;2023-04-01T23:26:49;6.50;99.90
8662;DHT22;29684;47.722;9.388;2023-04-01T23:29:37;6.50;99.90
8662;DHT22;29684;47.722;9.388;2023-04-01T23:32:24;6.50;99.90
8662;DHT22;29684;47.722;9.388;2023-04-01T23:35:15;6.40;99.90
8662;DHT22;29684;47.722;9.388;2023-04-01T23:38:00;6.40;99.90
8662;DHT22;29684;47.722;9.388;2023-04-01T23:40:48;6.40;99.90
8662;DHT22;29684;47.722;9.388;2023-04-01T23:43:39;6.40;99.90
8662;DHT22;29684;47.722;9.388;2023-04-01T23:46:25;6.40;99.90
8662;DHT22;29684;47.722;9.388;2023-04-01T23:49:17;6.50;99.90
8662;DHT22;29684;47.722;9.388;2023-04-01T23:52:24;6.30;99.90
8662;DHT22;29684;47.722;9.388;2023-04-01T23:55:27;6.30;99.90
8662;DHT22;29684;47.722;9.388;2023-04-01T23:58:26;6.50;99.90
